Time;durP1;ratioP1;P1;durP2;ratioP2;P2;SDS_P1;SDS_P2;PMS_P1;PMS_P2;Temp;Humidity;BMP_temperature;BMP_pressure;BME280_temperature;BME280_humidity;BME280_pressure;Samples;Min_cycle;Max_cycle;Signal;HPM_P1;HPM_P2
2023/08/04 00:00:42;;;;;;;5.43;3.55;;;19.10;56.90;;;;;;5058168;28;20021;-61
2023/08/04 00:03:09;;;;;;;5.78;3.63;;;19.50;55.20;;;;;;5057594;28;20453;-62
2023/08/04 00:05:37;;;;;;;7.13;3.90;;;19.20;55.80;;;;;;5058153;28;20070;-60
2023/08/04 00:08:05;;;;;;;8.95;3.75;;;19.50;55.50;;;;;;5058353;28;20513;-60
2023/08/04 00:10:32;;;;;;;4.63;3.45;;;19.60;55.00;;;;;;5057469;28;20394;-63
2023/08/04 00:13:00;;;;;;;8.45;3.95;;;20.00;54.10;;;;;;5057820;28;20037;-61
2023/08/04 00:15:29;;;;;;;9.43;3.55;;;20.60;53.10;;;;;;5058055;28;20335;-62
2023/08/04 00:17:56;;;;;;;6.35;3.17;;;20.90;52.00;;;;;;5056364;28;20025;-63
2023/08/04 00:20:29;;;;;;;7.25;3.60;;;20.60;51.90;;;;;;5057678;28;20091;-63
2023/08/04 00:22:57;;;;;;;6.18;2.97;;;20.30;52.60;;;;;;5057903;28;20025;-61
2023/08/04 00:25:24;;;;;;;6.88;3.40;;;20.20;52.20;;;;;;5056759;28;20032;-61
2023/08/04 00:27:52;;;;;;;6.25;3.25;;;20.70;51.50;;;;;;5056766;28;20051;-60
2023/08/04 00:30:19;;;;;;;4.43;3.17;;;20.40;52.20;;;;;;5058166;28;20024;-59
2023/08/04 00:32:47;;;;;;;5.70;3.17;;;20.70;50.60;;;;;;5057725;28;20025;-59
2023/08/04 00:35:15;;;;;;;5.15;2.72;;;20.30;51.80;;;;;;5056774;28;20041;-61
2023/08/04 00:37:42;;;;;;;5.72;2.95;;;20.70;51.20;;;;;;5057463;28;20064;-61
2023/08/04 00:40:10;;;;;;;5.47;2.78;;;21.20;51.10;;;;;;5056889;28;20021;-62
2023/08/04 00:42:38;;;;;;;6.53;3.38;;;21.60;50.10;;;;;;5057487;28;20021;-59
2023/08/04 00:45:07;;;;;;;5.80;3.17;;;21.90;49.40;;;;;;5057541;28;20104;-60
2023/08/04 00:47:37;;;;;;;6.38;3.17;;;21.40;49.60;;;;;;5056440;28;20047;-60
2023/08/04 00:50:07;;;;;;;6.18;3.20;;;22.00;49.60;;;;;;5073042;28;20039;-62
2023/08/04 00:52:36;;;;;;;6.40;2.95;;;22.50;48.50;;;;;;5072223;28;20218;-62
2023/08/04 00:55:04;;;;;;;5.40;3.08;;;22.40;47.80;;;;;;5057090;28;20348;-62
2023/08/04 00:57:32;;;;;;;8.35;3.38;;;22.20;48.60;;;;;;5072641;28;20545;-62
2023/08/04 00:59:59;;;;;;;7.38;3.40;;;21.80;49.70;;;;;;5072779;28;20025;-62
2023/08/04 01:02:27;;;;;;;6.70;3.28;;;22.40;48.50;;;;;;5057126;28;20032;-62
2023/08/04 01:04:54;;;;;;;5.95;4.20;;;22.10;47.90;;;;;;5072633;28;20035;-62
2023/08/04 01:07:26;;;;;;;5.32;3.15;;;22.00;48.30;;;;;;5055973;28;20032;-62
2023/08/04 01:10:17;;;;;;;5.60;3.15;;;22.30;47.90;;;;;;5072739;28;20029;-62
2023/08/04 01:12:53;;;;;;;5.88;3.00;;;22.50;46.70;;;;;;5072360;28;20059;-61
2023/08/04 01:15:22;;;;;;;4.45;2.72;;;22.80;47.90;;;;;;5072485;28;20106;-62
2023/08/04 01:17:50;;;;;;;3.58;2.70;;;23.10;46.70;;;;;;5056611;28;20139;-62
2023/08/04 01:20:18;;;;;;;7.28;3.25;;;23.40;46.20;;;;;;5072460;28;20032;-62
2023/08/04 01:22:46;;;;;;;4.47;2.80;;;23.60;46.40;;;;;;5072481;28;20100;-63
2023/08/04 01:25:13;;;;;;;5.68;3.05;;;23.60;45.90;;;;;;5056891;28;20059;-63
2023/08/04 01:27:45;;;;;;;5.43;2.70;;;24.00;44.80;;;;;;5071781;28;20051;-62
2023/08/04 01:30:25;;;;;;;5.93;3.20;;;24.20;44.90;;;;;;5072427;28;20070;-60
2023/08/04 01:32:53;;;;;;;7.93;3.00;;;24.60;44.10;;;;;;5056358;28;20045;-60
2023/08/04 01:35:20;;;;;;;7.47;3.60;;;24.70;43.40;;;;;;5072226;28;20032;-62
2023/08/04 01:37:48;;;;;;;6.00;2.90;;;24.10;44.40;;;;;;5056351;28;20021;-61
2023/08/04 01:40:16;;;;;;;4.28;2.90;;;23.50;45.30;;;;;;5056492;28;20025;-60
2023/08/04 01:42:43;;;;;;;9.82;3.95;;;24.00;44.30;;;;;;5056305;28;20067;-61
2023/08/04 01:45:11;;;;;;;3.80;2.88;;;24.10;44.70;;;;;;5056396;28;20021;-61
2023/08/04 01:47:42;;;;;;;6.13;2.78;;;24.10;43.90;;;;;;5056240;28;20108;-61
2023/08/04 01:50:10;;;;;;;6.45;2.70;;;24.60;43.50;;;;;;5056182;28;20470;-61
2023/08/04 01:52:38;;;;;;;4.30;2.53;;;24.60;42.90;;;;;;5056291;28;20025;-61
2023/08/04 01:55:06;;;;;;;4.78;2.88;;;24.90;42.30;;;;;;5056315;28;20048;-60
2023/08/04 01:57:34;;;;;;;5.28;2.45;;;25.10;41.20;;;;;;5056112;28;20355;-60
2023/08/04 02:00:02;;;;;;;4.22;2.65;;;25.50;40.80;;;;;;5055362;28;20056;-62
2023/08/04 02:02:30;;;;;;;4.10;2.60;;;25.70;40.70;;;;;;5073151;28;20021;-63
2023/08/04 02:04:57;;;;;;;6.65;2.80;;;25.60;40.80;;;;;;5073466;28;20038;-62
2023/08/04 02:07:25;;;;;;;4.03;2.22;;;25.60;41.40;;;;;;5057671;28;20036;-62
2023/08/04 02:09:53;;;;;;;6.18;3.72;;;25.20;40.20;;;;;;5074768;28;20044;-62
2023/08/04 02:12:20;;;;;;;4.13;2.85;;;25.30;40.60;;;;;;5057174;28;20025;-60
2023/08/04 02:14:52;;;;;;;5.55;2.50;;;25.60;41.50;;;;;;5058154;28;20032;-64
2023/08/04 02:17:20;;;;;;;4.32;2.33;;;25.60;41.00;;;;;;5072919;28;20025;-64
2023/08/04 02:19:47;;;;;;;5.78;2.25;;;26.40;39.90;;;;;;5057802;28;20032;-62
2023/08/04 02:22:17;;;;;;;5.15;2.28;;;26.60;39.30;;;;;;5074573;28;20028;-64
2023/08/04 02:24:45;;;;;;;4.30;1.98;;;25.60;39.20;;;;;;5072600;28;20033;-63
2023/08/04 02:27:13;;;;;;;3.47;2.30;;;25.50;39.50;;;;;;5073791;28;20108;-63
2023/08/04 02:29:40;;;;;;;4.82;2.35;;;26.10;39.20;;;;;;5072411;28;20447;-64
2023/08/04 02:32:08;;;;;;;3.45;2.33;;;25.80;39.10;;;;;;5073540;28;20377;-63
2023/08/04 02:34:36;;;;;;;6.15;2.20;;;24.70;39.90;;;;;;5058593;28;20036;-65
2023/08/04 02:37:04;;;;;;;4.07;2.30;;;24.90;40.80;;;;;;5070861;28;20033;-66
2023/08/04 02:39:37;;;;;;;3.28;2.30;;;24.80;40.00;;;;;;5072099;28;20071;-65
2023/08/04 02:42:04;;;;;;;6.40;2.30;;;25.40;38.90;;;;;;5072798;28;20027;-66
2023/08/04 02:44:32;;;;;;;2.72;1.92;;;25.60;39.90;;;;;;5057435;28;20439;-66
2023/08/04 02:46:59;;;;;;;6.45;2.45;;;26.00;39.20;;;;;;5071134;28;20072;-65
2023/08/04 02:49:28;;;;;;;5.50;2.25;;;26.30;38.70;;;;;;5071933;28;20021;-65
2023/08/04 02:51:55;;;;;;;3.03;2.25;;;26.40;37.70;;;;;;5058386;28;20025;-66
2023/08/04 02:54:23;;;;;;;4.80;2.15;;;26.30;38.50;;;;;;5058640;28;20032;-65
2023/08/04 02:56:50;;;;;;;3.67;2.03;;;26.50;38.10;;;;;;5055265;28;20029;-66
2023/08/04 02:59:18;;;;;;;7.30;2.25;;;26.50;38.30;;;;;;5055386;28;20017;-66
2023/08/04 03:01:45;;;;;;;6.72;2.25;;;25.70;38.10;;;;;;5055420;28;20033;-65
2023/08/04 03:04:14;;;;;;;5.13;2.20;;;26.30;38.50;;;;;;5071056;28;20017;-65
2023/08/04 03:06:41;;;;;;;4.93;2.10;;;25.80;37.70;;;;;;5055101;28;20037;-66
2023/08/04 03:09:09;;;;;;;4.55;2.10;;;25.50;37.90;;;;;;5055189;28;20101;-66
2023/08/04 03:11:36;;;;;;;3.00;1.90;;;25.70;37.90;;;;;;5055199;28;20486;-66
2023/08/04 03:14:04;;;;;;;5.60;2.30;;;26.20;37.10;;;;;;5070264;28;20054;-66
2023/08/04 03:16:32;;;;;;;3.20;2.03;;;26.70;37.00;;;;;;5070717;28;20360;-66
2023/08/04 03:18:59;;;;;;;3.47;1.92;;;26.50;35.80;;;;;;5054986;28;20025;-67
2023/08/04 03:21:27;;;;;;;2.70;1.83;;;26.50;36.50;;;;;;5054864;28;20025;-66
2023/08/04 03:23:54;;;;;;;2.83;1.90;;;27.00;34.80;;;;;;5055010;28;20021;-66
2023/08/04 03:26:22;;;;;;;4.88;2.10;;;27.00;34.90;;;;;;5055341;28;20022;-65
2023/08/04 03:28:49;;;;;;;5.05;1.80;;;26.70;34.30;;;;;;5071296;28;20116;-63
2023/08/04 03:31:16;;;;;;;6.20;2.33;;;26.60;34.70;;;;;;5070292;28;20084;-64
2023/08/04 03:33:44;;;;;;;5.15;1.98;;;26.20;35.20;;;;;;5070094;28;20091;-63
2023/08/04 03:36:12;;;;;;;5.43;2.67;;;26.70;34.70;;;;;;5070327;28;20025;-63
2023/08/04 03:38:39;;;;;;;5.97;2.55;;;26.90;34.60;;;;;;5070075;28;20029;-63
2023/08/04 03:41:07;;;;;;;5.53;2.10;;;26.60;35.40;;;;;;5054614;28;20024;-63
2023/08/04 03:43:34;;;;;;;2.67;1.75;;;26.60;34.90;;;;;;5070254;28;20087;-63
2023/08/04 03:46:02;;;;;;;2.92;1.65;;;26.50;35.30;;;;;;5055493;28;20025;-63
2023/08/04 03:48:29;;;;;;;4.72;2.50;;;26.70;33.90;;;;;;5054785;28;20083;-63
2023/08/04 03:50:57;;;;;;;2.50;1.85;;;25.90;35.40;;;;;;5055106;28;20021;-63
2023/08/04 03:53:24;;;;;;;4.22;2.17;;;25.80;35.10;;;;;;5053807;28;20450;-63
2023/08/04 03:55:52;;;;;;;3.08;1.70;;;26.20;34.80;;;;;;5054655;28;20053;-62
2023/08/04 03:58:20;;;;;;;3.53;2.03;;;26.30;35.20;;;;;;5054611;28;20027;-63
2023/08/04 04:00:47;;;;;;;3.22;2.13;;;26.60;34.90;;;;;;5054772;28;20067;-63
2023/08/04 04:03:15;;;;;;;3.15;1.70;;;26.70;34.40;;;;;;5054778;28;20035;-63
2023/08/04 04:05:42;;;;;;;4.40;2.10;;;27.10;34.00;;;;;;5054456;28;20075;-62
2023/08/04 04:08:10;;;;;;;3.67;2.15;;;26.80;34.60;;;;;;5054416;28;20111;-63
2023/08/04 04:10:37;;;;;;;3.88;2.28;;;27.10;34.70;;;;;;5054592;28;20021;-63
2023/08/04 04:13:05;;;;;;;4.97;2.00;;;27.50;34.60;;;;;;5070217;28;20033;-64
2023/08/04 04:15:32;;;;;;;5.32;2.22;;;26.90;35.10;;;;;;5054451;28;20032;-64
2023/08/04 04:18:00;;;;;;;5.03;2.20;;;27.10;35.50;;;;;;5054266;28;20025;-63
2023/08/04 04:20:27;;;;;;;4.10;1.90;;;26.70;35.80;;;;;;5070020;28;20028;-63
2023/08/04 04:22:55;;;;;;;11.63;3.00;;;26.80;35.80;;;;;;5054332;28;20033;-63
2023/08/04 04:25:22;;;;;;;3.40;1.80;;;27.30;35.30;;;;;;5054385;28;20044;-63
2023/08/04 04:27:50;;;;;;;3.17;1.98;;;27.40;35.00;;;;;;5057508;28;20017;-63
2023/08/04 04:30:17;;;;;;;3.63;1.80;;;26.60;35.90;;;;;;5058029;28;20036;-63
2023/08/04 04:32:45;;;;;;;3.38;1.90;;;26.60;36.20;;;;;;5057903;28;20024;-63
2023/08/04 04:35:12;;;;;;;5.28;2.20;;;26.60;36.30;;;;;;5057887;28;20079;-63
2023/08/04 04:37:40;;;;;;;4.72;2.10;;;26.40;36.40;;;;;;5057607;28;20029;-63
2023/08/04 04:40:08;;;;;;;3.65;1.80;;;26.80;36.20;;;;;;5073349;28;20063;-64
2023/08/04 04:42:36;;;;;;;4.05;2.10;;;27.30;36.00;;;;;;5057662;28;20048;-63
2023/08/04 04:45:03;;;;;;;3.95;1.70;;;27.80;35.50;;;;;;5057595;28;20017;-63
2023/08/04 04:47:31;;;;;;;5.57;2.10;;;28.00;35.00;;;;;;5073147;28;20355;-64
2023/08/04 04:49:59;;;;;;;5.75;2.17;;;28.20;34.90;;;;;;5057456;28;20020;-63
2023/08/04 04:52:37;;;;;;;3.03;1.95;;;28.10;35.40;;;;;;5057438;28;20021;-63
2023/08/04 04:55:06;;;;;;;2.60;1.88;;;28.10;35.80;;;;;;5057485;28;20490;-63
2023/08/04 04:57:39;;;;;;;3.28;2.05;;;27.90;34.90;;;;;;5057233;28;20363;-63
2023/08/04 05:00:08;;;;;;;2.85;2.10;;;27.70;35.30;;;;;;5073079;28;20021;-63
2023/08/04 05:02:36;;;;;;;8.35;2.40;;;27.60;35.60;;;;;;5057244;28;20411;-64
2023/08/04 05:05:03;;;;;;;3.70;1.90;;;27.60;35.60;;;;;;5057012;28;20351;-63
2023/08/04 05:07:31;;;;;;;3.92;2.00;;;27.80;34.80;;;;;;5057323;28;20029;-66
2023/08/04 05:09:59;;;;;;;3.00;1.85;;;28.10;34.10;;;;;;5057179;28;20021;-65
2023/08/04 05:12:26;;;;;;;6.57;2.30;;;27.90;33.30;;;;;;5057117;28;20025;-65
2023/08/04 05:14:54;;;;;;;3.65;1.95;;;28.20;34.00;;;;;;5072690;28;20059;-66
2023/08/04 05:17:21;;;;;;;3.33;1.90;;;29.10;33.50;;;;;;5072556;28;20107;-66
2023/08/04 05:19:49;;;;;;;3.15;1.90;;;28.50;31.90;;;;;;5056941;28;20317;-66
2023/08/04 05:22:17;;;;;;;4.25;1.80;;;28.50;32.50;;;;;;5057049;28;20045;-66
2023/08/04 05:24:44;;;;;;;3.22;1.88;;;29.00;31.30;;;;;;5056160;28;20021;-65
2023/08/04 05:27:12;;;;;;;2.97;2.03;;;29.70;30.90;;;;;;5072352;28;20051;-65
2023/08/04 05:29:40;;;;;;;4.95;2.05;;;29.80;30.60;;;;;;5056600;28;20370;-66
2023/08/04 05:32:08;;;;;;;4.78;2.15;;;29.80;31.10;;;;;;5072526;28;20470;-66
2023/08/04 05:34:35;;;;;;;5.80;2.20;;;29.70;30.90;;;;;;5072306;28;20472;-67
2023/08/04 05:37:03;;;;;;;3.28;1.83;;;29.60;31.00;;;;;;5056163;28;20418;-66
2023/08/04 05:39:32;;;;;;;3.10;1.70;;;30.40;29.70;;;;;;5056570;28;20017;-66
2023/08/04 05:42:01;;;;;;;2.88;1.70;;;30.10;30.20;;;;;;5072001;28;20025;-65
2023/08/04 05:44:29;;;;;;;3.00;2.30;;;30.20;30.40;;;;;;5056471;28;20406;-65
2023/08/04 05:46:57;;;;;;;3.42;1.90;;;29.20;31.00;;;;;;5056297;28;20032;-65
2023/08/04 05:49:25;;;;;;;4.30;2.00;;;28.80;31.80;;;;;;5072120;28;20051;-66
2023/08/04 05:51:53;;;;;;;3.17;1.98;;;29.40;31.00;;;;;;5072044;28;20124;-65
2023/08/04 05:54:20;;;;;;;4.35;1.95;;;29.10;30.70;;;;;;5072073;28;20462;-65
2023/08/04 05:56:48;;;;;;;4.30;1.95;;;28.70;31.30;;;;;;5056179;28;20032;-65
2023/08/04 05:59:23;;;;;;;3.78;1.88;;;29.10;31.50;;;;;;5055550;28;20025;-63
2023/08/04 06:01:54;;;;;;;4.32;2.00;;;30.00;31.00;;;;;;5056243;28;20029;-62
2023/08/04 06:04:23;;;;;;;4.10;1.90;;;29.90;30.20;;;;;;5056127;28;20032;-63
2023/08/04 06:06:51;;;;;;;3.55;1.73;;;29.80;30.20;;;;;;5054761;28;20099;-63
2023/08/04 06:09:19;;;;;;;4.20;1.83;;;29.80;30.20;;;;;;5055938;28;20029;-62
2023/08/04 06:11:46;;;;;;;4.97;1.90;;;28.50;31.20;;;;;;5071363;28;20021;-63
2023/08/04 06:14:14;;;;;;;3.80;1.95;;;26.50;34.00;;;;;;5071439;28;20025;-66
2023/08/04 06:16:42;;;;;;;4.32;2.28;;;25.40;35.50;;;;;;5071103;28;20025;-66
2023/08/04 06:19:10;;;;;;;6.80;2.22;;;24.60;36.60;;;;;;5071191;28;20029;-67
2023/08/04 06:21:37;;;;;;;4.55;2.05;;;24.10;36.80;;;;;;5055611;28;20348;-66
2023/08/04 06:24:05;;;;;;;2.72;1.90;;;23.80;37.40;;;;;;5055536;28;20447;-66
2023/08/04 06:26:33;;;;;;;5.03;2.13;;;23.70;37.60;;;;;;5071063;28;20025;-65
2023/08/04 06:29:03;;;;;;;5.68;2.00;;;23.60;38.10;;;;;;5055217;28;20024;-65
2023/08/04 06:31:32;;;;;;;4.32;1.77;;;23.50;38.00;;;;;;5056327;28;20095;-66
2023/08/04 06:33:59;;;;;;;5.13;1.75;;;23.40;38.60;;;;;;5056482;28;20448;-67
2023/08/04 06:36:27;;;;;;;4.95;2.45;;;23.40;38.40;;;;;;5055339;28;20462;-67
2023/08/04 06:38:55;;;;;;;7.13;2.08;;;23.20;38.60;;;;;;5055185;28;20454;-67
2023/08/04 06:41:23;;;;;;;3.85;2.38;;;23.10;38.70;;;;;;5055516;28;20036;-66
2023/08/04 06:43:51;;;;;;;4.45;2.33;;;23.10;39.40;;;;;;5055696;28;20048;-67
2023/08/04 06:46:18;;;;;;;5.40;1.95;;;22.90;39.30;;;;;;5055326;28;20032;-66
2023/08/04 06:48:46;;;;;;;5.22;2.08;;;22.80;39.60;;;;;;5054713;28;20017;-66
2023/08/04 06:51:14;;;;;;;4.72;2.30;;;22.60;40.30;;;;;;5055408;28;20021;-66
2023/08/04 06:53:41;;;;;;;4.57;2.10;;;22.40;40.70;;;;;;5055427;28;20489;-66
2023/08/04 06:56:09;;;;;;;5.30;1.90;;;22.40;41.20;;;;;;5055635;28;20029;-66
2023/08/04 06:58:37;;;;;;;6.35;2.10;;;22.20;40.50;;;;;;5055058;28;20025;-66
2023/08/04 07:01:04;;;;;;;5.47;1.90;;;22.10;41.30;;;;;;5054886;28;20017;-66
2023/08/04 07:03:32;;;;;;;4.22;1.80;;;21.90;42.20;;;;;;5055078;28;20013;-66
2023/08/04 07:06:06;;;;;;;4.43;1.67;;;21.80;42.80;;;;;;5054576;28;20387;-62
2023/08/04 07:08:34;;;;;;;5.65;2.03;;;21.60;43.20;;;;;;5055720;28;20036;-67
2023/08/04 07:11:04;;;;;;;10.00;2.55;;;21.30;43.50;;;;;;5071077;28;20118;-66
2023/08/04 07:13:32;;;;;;;4.10;2.58;;;21.10;44.20;;;;;;5055757;28;20021;-66
2023/08/04 07:16:00;;;;;;;4.15;2.47;;;21.00;44.60;;;;;;5055697;28;20414;-67
2023/08/04 07:18:28;;;;;;;6.03;2.70;;;21.00;45.20;;;;;;5055714;28;20021;-62
2023/08/04 07:21:09;;;;;;;5.57;2.53;;;20.80;46.20;;;;;;5070905;28;20039;-66
2023/08/04 07:23:37;;;;;;;5.60;2.42;;;20.60;47.20;;;;;;5056316;28;20025;-66
2023/08/04 07:26:06;;;;;;;4.78;2.30;;;20.60;48.00;;;;;;5055503;28;20438;-65
2023/08/04 07:28:34;;;;;;;6.55;2.55;;;20.20;48.50;;;;;;5071729;28;20044;-65
2023/08/04 07:31:06;;;;;;;4.95;2.47;;;19.90;49.60;;;;;;5071476;28;20413;-64
2023/08/04 07:33:34;;;;;;;4.57;2.40;;;19.60;50.70;;;;;;5055751;28;20040;-66
2023/08/04 07:36:03;;;;;;;5.22;2.28;;;19.40;51.30;;;;;;5056015;28;20055;-64
2023/08/04 07:38:31;;;;;;;5.65;3.28;;;19.10;51.90;;;;;;5073147;28;20484;-66
2023/08/04 07:40:59;;;;;;;10.63;3.63;;;19.00;52.60;;;;;;5072313;28;20078;-65
2023/08/04 07:43:27;;;;;;;5.15;2.97;;;18.80;52.90;;;;;;5056651;28;20013;-65
2023/08/04 07:45:55;;;;;;;4.47;2.80;;;18.80;53.00;;;;;;5057523;28;20159;-65
2023/08/04 07:48:23;;;;;;;7.75;3.20;;;18.90;52.50;;;;;;5056074;28;20077;-65
2023/08/04 07:50:52;;;;;;;5.00;2.70;;;19.20;52.10;;;;;;5070370;28;20082;-65
2023/08/04 07:53:20;;;;;;;7.70;3.60;;;19.20;51.90;;;;;;5071317;28;20439;-65
2023/08/04 07:55:58;;;;;;;9.80;6.10;;;19.10;52.70;;;;;;5073332;28;20116;-65
2023/08/04 07:58:26;;;;;;;9.57;6.72;;;19.00;53.60;;;;;;5070367;28;20073;-66
2023/08/04 08:00:54;;;;;;;8.75;6.20;;;18.70;54.10;;;;;;5057576;28;20021;-65
2023/08/04 08:03:22;;;;;;;12.07;7.55;;;18.60;54.70;;;;;;5058459;28;20021;-65
2023/08/04 08:05:54;;;;;;;11.48;7.15;;;18.50;55.20;;;;;;5075309;28;20083;-62
2023/08/04 08:08:21;;;;;;;11.70;7.70;;;18.20;55.80;;;;;;5074786;28;20115;-62
2023/08/04 08:10:49;;;;;;;13.40;8.43;;;18.20;56.30;;;;;;5059564;28;20104;-65
2023/08/04 08:13:17;;;;;;;12.60;8.65;;;18.10;56.90;;;;;;5057910;28;20040;-61
2023/08/04 08:15:44;;;;;;;12.95;9.25;;;17.90;57.70;;;;;;5060421;28;20108;-63
2023/08/04 08:18:12;;;;;;;18.05;9.05;;;17.80;57.80;;;;;;5059537;28;20036;-63
2023/08/04 08:20:44;;;;;;;19.23;10.13;;;17.60;58.40;;;;;;5058668;28;20021;-65
2023/08/04 08:23:12;;;;;;;17.90;10.57;;;17.60;59.20;;;;;;5075453;28;20028;-65
2023/08/04 08:25:41;;;;;;;18.08;10.68;;;17.60;60.50;;;;;;5058765;28;20451;-65
2023/08/04 08:28:08;;;;;;;14.07;10.10;;;17.70;61.40;;;;;;5059165;28;20060;-66
2023/08/04 08:30:36;;;;;;;14.10;9.48;;;17.70;61.30;;;;;;5058037;28;20021;-64
2023/08/04 08:33:04;;;;;;;14.23;9.02;;;17.70;62.00;;;;;;5059308;28;20153;-64
2023/08/04 08:35:31;;;;;;;12.98;8.82;;;17.70;61.60;;;;;;5075389;28;20040;-64
2023/08/04 08:37:59;;;;;;;12.52;8.75;;;17.70;62.20;;;;;;5058905;28;20025;-64
2023/08/04 08:40:26;;;;;;;16.52;11.80;;;17.80;62.90;;;;;;5075483;28;20469;-64
2023/08/04 08:42:55;;;;;;;17.98;10.45;;;17.80;62.70;;;;;;5075818;28;20025;-64
2023/08/04 08:45:28;;;;;;;15.10;10.80;;;17.70;63.90;;;;;;5060420;28;20347;-66
2023/08/04 08:47:59;;;;;;;14.43;10.43;;;17.80;63.70;;;;;;5075909;28;20029;-67
2023/08/04 08:50:28;;;;;;;15.93;10.95;;;17.70;63.90;;;;;;5058987;28;20442;-67
2023/08/04 08:53:10;;;;;;;16.67;11.57;;;17.60;63.90;;;;;;5057721;28;20040;-68
2023/08/04 08:55:40;;;;;;;16.23;11.50;;;17.60;64.80;;;;;;5057840;28;20399;-67
2023/08/04 08:58:09;;;;;;;23.67;12.75;;;17.50;65.20;;;;;;5059970;28;20048;-67
2023/08/04 09:00:37;;;;;;;18.73;12.63;;;17.50;65.20;;;;;;5075965;28;20021;-68
2023/08/04 09:03:07;;;;;;;16.92;12.38;;;17.60;66.30;;;;;;5060239;28;20021;-68
2023/08/04 09:05:35;;;;;;;20.80;13.80;;;17.60;65.80;;;;;;5076040;28;20072;-66
2023/08/04 09:08:03;;;;;;;19.88;13.25;;;17.70;65.90;;;;;;5059251;28;20029;-64
2023/08/04 09:10:34;;;;;;;20.20;13.02;;;17.80;65.80;;;;;;5072626;28;20033;-68
2023/08/04 09:13:02;;;;;;;17.17;13.37;;;17.90;65.40;;;;;;5056381;28;20021;-69
2023/08/04 09:15:58;;;;;;;16.60;12.85;;;17.80;65.50;;;;;;5074063;28;20375;-70
2023/08/04 09:18:30;;;;;;;16.80;12.63;;;17.60;65.90;;;;;;5055587;28;20515;-70
2023/08/04 09:21:11;;;;;;;18.65;13.88;;;17.10;66.90;;;;;;5057595;28;20060;-69
2023/08/04 09:23:52;;;;;;;18.20;12.82;;;17.00;67.50;;;;;;5072986;28;20021;-67
2023/08/04 09:26:19;;;;;;;20.17;12.95;;;16.90;67.90;;;;;;5058331;28;20017;-69
2023/08/04 09:29:03;;;;;;;18.63;12.70;;;16.70;68.00;;;;;;5058159;28;20073;-68
2023/08/04 09:31:56;;;;;;;20.08;12.98;;;16.70;67.90;;;;;;5059167;28;20029;-69
2023/08/04 09:34:23;;;;;;;19.80;13.40;;;16.70;68.30;;;;;;5056378;28;20029;-69
2023/08/04 09:36:51;;;;;;;20.35;12.10;;;16.50;68.20;;;;;;5073201;28;20446;-69
2023/08/04 09:39:19;;;;;;;16.70;12.45;;;16.50;68.50;;;;;;5059620;28;20045;-69
2023/08/04 09:41:47;;;;;;;18.90;13.20;;;16.30;69.00;;;;;;5056549;28;20021;-69
2023/08/04 09:44:15;;;;;;;21.08;13.35;;;16.30;69.30;;;;;;5056793;28;20025;-69
2023/08/04 09:46:52;;;;;;;19.92;13.20;;;16.20;69.60;;;;;;5056732;28;20096;-69
2023/08/04 09:49:24;;;;;;;16.30;11.85;;;16.10;69.70;;;;;;5072883;28;20025;-69
2023/08/04 09:51:56;;;;;;;19.92;13.13;;;16.10;69.40;;;;;;5056787;28;20100;-68
2023/08/04 09:54:24;;;;;;;16.90;12.23;;;15.90;69.80;;;;;;5055991;28;20094;-67
2023/08/04 09:56:52;;;;;;;18.10;11.93;;;15.70;70.60;;;;;;5056201;28;20017;-67
2023/08/04 09:59:20;;;;;;;18.02;12.73;;;15.60;70.60;;;;;;5057316;28;20020;-68
2023/08/04 10:01:47;;;;;;;19.63;13.07;;;15.50;72.40;;;;;;5056799;28;20028;-71
2023/08/04 10:04:16;;;;;;;17.85;12.65;;;15.40;72.30;;;;;;5072019;28;20028;-67
2023/08/04 10:06:45;;;;;;;18.00;12.75;;;15.40;72.50;;;;;;5071809;28;20037;-67
2023/08/04 10:09:13;;;;;;;23.60;13.30;;;15.30;72.50;;;;;;5056429;28;20021;-67
2023/08/04 10:11:40;;;;;;;22.42;12.43;;;15.30;72.90;;;;;;5058010;28;20398;-69
2023/08/04 10:14:08;;;;;;;17.20;12.43;;;15.10;73.40;;;;;;5056077;28;20350;-69
2023/08/04 10:16:39;;;;;;;18.33;13.07;;;15.20;73.10;;;;;;5072749;28;20075;-69
2023/08/04 10:19:10;;;;;;;18.08;12.65;;;15.00;73.90;;;;;;5058394;28;20035;-69
2023/08/04 10:21:40;;;;;;;17.75;12.85;;;14.80;74.00;;;;;;5058866;28;20079;-68
2023/08/04 10:24:09;;;;;;;19.67;12.55;;;14.80;73.80;;;;;;5057245;28;20459;-69
2023/08/04 10:26:48;;;;;;;21.83;12.73;;;14.80;74.40;;;;;;5057816;28;20021;-70
2023/08/04 10:29:17;;;;;;;18.17;12.80;;;14.80;73.40;;;;;;5056090;28;20021;-69
2023/08/04 10:31:47;;;;;;;17.25;12.77;;;14.80;73.40;;;;;;5056530;28;20028;-69
2023/08/04 10:34:27;;;;;;;19.23;13.02;;;14.70;73.50;;;;;;5071429;28;20052;-69
2023/08/04 10:37:09;;;;;;;18.73;13.88;;;14.60;73.40;;;;;;5057029;28;20025;-68
2023/08/04 10:39:44;;;;;;;19.92;11.90;;;14.60;74.10;;;;;;5071156;28;20067;-67
2023/08/04 10:42:24;;;;;;;17.55;13.38;;;14.40;74.00;;;;;;5072259;28;20025;-68
2023/08/04 10:45:09;;;;;;;20.15;14.00;;;14.50;73.60;;;;;;5073741;28;20104;-68
2023/08/04 10:47:48;;;;;;;17.55;13.35;;;14.40;74.00;;;;;;5056397;28;20374;-69
2023/08/04 10:50:16;;;;;;;21.65;14.65;;;14.50;73.80;;;;;;5056370;28;20036;-68
2023/08/04 10:52:44;;;;;;;23.60;13.98;;;14.50;73.20;;;;;;5071054;28;20025;-66
2023/08/04 10:55:13;;;;;;;22.58;13.18;;;14.50;73.20;;;;;;5055454;28;20398;-67
2023/08/04 10:57:42;;;;;;;19.30;13.10;;;14.40;73.30;;;;;;5070730;28;20108;-67
2023/08/04 11:00:11;;;;;;;21.88;13.75;;;14.20;73.60;;;;;;5055366;28;20458;-67
2023/08/04 11:02:39;;;;;;;18.25;13.40;;;14.20;73.80;;;;;;5055663;28;20044;-68
2023/08/04 11:05:13;;;;;;;18.65;12.95;;;14.10;74.00;;;;;;5070690;28;20455;-67
2023/08/04 11:07:46;;;;;;;19.73;13.88;;;14.00;75.10;;;;;;5056879;28;20021;-68
2023/08/04 11:10:14;;;;;;;18.27;13.63;;;14.00;74.70;;;;;;5054172;28;20025;-67
2023/08/04 11:12:41;;;;;;;20.63;14.15;;;13.90;74.40;;;;;;5071332;28;20346;-68
2023/08/04 11:15:12;;;;;;;20.35;14.52;;;14.00;74.50;;;;;;5055379;28;20055;-68
2023/08/04 11:17:42;;;;;;;20.20;14.35;;;14.00;74.60;;;;;;5071132;28;20029;-67
2023/08/04 11:20:14;;;;;;;20.75;14.55;;;13.90;74.70;;;;;;5071666;28;20025;-67
2023/08/04 11:22:46;;;;;;;20.52;13.98;;;13.80;74.30;;;;;;5054646;28;20017;-68
2023/08/04 11:25:13;;;;;;;22.23;14.82;;;13.80;74.60;;;;;;5071266;28;20475;-67
2023/08/04 11:27:42;;;;;;;16.63;13.60;;;13.80;74.70;;;;;;5071240;28;20025;-67
2023/08/04 11:30:12;;;;;;;20.30;13.35;;;13.60;75.20;;;;;;5055636;28;20417;-68
2023/08/04 11:32:39;;;;;;;18.15;13.45;;;13.70;74.70;;;;;;5055099;28;20033;-67
2023/08/04 11:35:08;;;;;;;22.38;14.18;;;13.70;74.80;;;;;;5055721;28;20052;-67
2023/08/04 11:37:35;;;;;;;17.45;13.45;;;13.60;75.90;;;;;;5075169;28;20451;-67
2023/08/04 11:40:03;;;;;;;20.33;14.38;;;13.50;76.30;;;;;;5059370;28;20021;-67
2023/08/04 11:42:30;;;;;;;18.83;13.18;;;13.50;77.40;;;;;;5059568;28;20025;-67
2023/08/04 11:44:58;;;;;;;19.45;13.68;;;13.40;76.30;;;;;;5059578;28;20028;-67
2023/08/04 11:47:25;;;;;;;19.83;13.73;;;13.30;76.90;;;;;;5059427;28;20403;-66
2023/08/04 11:49:54;;;;;;;21.33;13.98;;;13.20;77.30;;;;;;5074749;28;20029;-68
2023/08/04 11:52:22;;;;;;;23.40;14.02;;;13.10;76.90;;;;;;5059191;28;20021;-67
2023/08/04 11:54:57;;;;;;;25.20;16.30;;;13.10;77.10;;;;;;5059358;28;20021;-69
2023/08/04 11:57:25;;;;;;;23.83;17.20;;;12.90;78.50;;;;;;5058842;28;20033;-67
2023/08/04 11:59:53;;;;;;;26.63;19.27;;;12.60;79.00;;;;;;5074581;28;20028;-69
2023/08/04 12:02:22;;;;;;;27.08;22.15;;;12.60;79.60;;;;;;5059089;28;20024;-67
2023/08/04 12:05:12;;;;;;;28.48;21.70;;;12.50;80.30;;;;;;5075108;28;20043;-69
2023/08/04 12:07:40;;;;;;;26.50;19.77;;;12.40;80.90;;;;;;5058361;28;20037;-69
2023/08/04 12:10:14;;;;;;;24.23;18.23;;;12.40;80.80;;;;;;5058589;28;20075;-69
2023/08/04 12:12:42;;;;;;;22.13;18.42;;;12.50;79.80;;;;;;5058543;28;20036;-69
2023/08/04 12:15:10;;;;;;;29.27;19.48;;;12.50;78.90;;;;;;5074029;28;20098;-69
2023/08/04 12:17:40;;;;;;;23.15;17.05;;;12.60;78.40;;;;;;5058169;28;20025;-67
2023/08/04 12:20:10;;;;;;;23.50;17.15;;;12.50;79.80;;;;;;5073813;28;20493;-67
2023/08/04 12:22:40;;;;;;;21.30;16.08;;;12.40;79.70;;;;;;5057129;28;20021;-67
2023/08/04 12:25:08;;;;;;;26.80;17.05;;;12.40;79.80;;;;;;5058274;28;20027;-67
2023/08/04 12:27:36;;;;;;;19.75;15.25;;;12.30;79.30;;;;;;5073647;28;20029;-66
2023/08/04 12:30:04;;;;;;;23.40;16.65;;;12.20;80.20;;;;;;5058070;28;20021;-67
2023/08/04 12:32:32;;;;;;;20.05;15.25;;;12.00;81.30;;;;;;5058103;28;20036;-67
2023/08/04 12:34:59;;;;;;;24.55;16.17;;;11.90;81.40;;;;;;5073721;28;20447;-67
2023/08/04 12:37:27;;;;;;;21.02;16.08;;;11.90;81.90;;;;;;5073427;28;20451;-68
2023/08/04 12:39:55;;;;;;;21.92;16.00;;;11.80;82.20;;;;;;5058665;28;20049;-66
2023/08/04 12:42:22;;;;;;;19.98;16.20;;;11.80;82.10;;;;;;5058009;28;20047;-68
2023/08/04 12:44:50;;;;;;;27.50;16.17;;;11.90;81.30;;;;;;5057966;28;20017;-68
2023/08/04 12:47:17;;;;;;;24.17;16.70;;;11.90;81.20;;;;;;5056659;28;20123;-67
2023/08/04 12:49:44;;;;;;;20.73;15.15;;;11.80;81.70;;;;;;5073624;28;20025;-67